This is the latest recevied weather packets stored in our database for station/object KC2G. If no packets are shown the sender has not sent any weather packets the latest 10 day(s).
| Time | Temp. | Humidity | Pressure | Rain* | Wind** | Luminosity | Snow |
|---|---|---|---|---|---|---|---|
| 1777700755 | 10° C | 96% | 1011.4 hPa | 0 mm | 0 m/s | - | - |
| 1777699857 | 10° C | 94% | 1011.6 hPa | 0 mm | 0 m/s | - | - |
| 1777699339 | 10.56° C | 91% | 1011.6 hPa | 0 mm | 0 m/s | - | - |
| 1777698954 | 10° C | 93% | 1011.6 hPa | 0 mm | 0 m/s | - | - |
| 1777698088 | 10.56° C | 91% | 1011.6 hPa | 0 mm | 0 m/s | - | - |
| 1777698055 | 10.56° C | 91% | 1011.6 hPa | 0 mm | 0 m/s | - | - |
| 1777697154 | 10.56° C | 90% | 1011.5 hPa | 0 mm | 0 m/s | - | - |
| 1777696255 | 10.56° C | 89% | 1011.8 hPa | 0 mm | 0 m/s | - | - |
| 1777695355 | 10.56° C | 88% | 1011.9 hPa | 0 mm | 0 m/s | - | - |
| 1777694456 | 10.56° C | 88% | 1011.8 hPa | 0 mm | 0 m/s | - | - |
| 1777693565 | 10.56° C | 86% | 1011.6 hPa | 0 mm | 0 m/s | - | - |
| 1777693555 | 10.56° C | 86% | 1011.6 hPa | 0 mm | 0 m/s | - | - |
| 1777692655 | 10.56° C | 86% | 1011.6 hPa | 0 mm | 0 m/s | - | - |
| 1777691755 | 10.56° C | 86% | 1011.6 hPa | 0 mm | 0 m/s | - | - |
| 1777690888 | 11.11° C | 85% | 1012 hPa | 0 mm | 0 m/s | - | - |
| 1777690856 | 11.11° C | 85% | 1012 hPa | 0 mm | 0 m/s | - | - |
| 1777689956 | 11.11° C | 82% | 1011.9 hPa | 0 mm | 0 m/s | - | - |
| 1777689055 | 11.11° C | 81% | 1011.8 hPa | 0 mm | 0 m/s | - | - |
| 1777688154 | 11.67° C | 80% | 1011.7 hPa | 0 mm | 0 m/s | - | - |
| 1777687365 | 11.67° C | 79% | 1011.6 hPa | 0 mm | 0 m/s | - | - |
| 1777687255 | 11.67° C | 79% | 1011.6 hPa | 0 mm | 0 m/s | - | - |
| 1777686354 | 12.22° C | 77% | 1011.6 hPa | 0 mm | 0 m/s | - | - |
| 1777685455 | 12.22° C | 73% | 1011.3 hPa | 0 mm | 0 m/s | - | - |
| 1777684555 | 12.78° C | 71% | 1011 hPa | 0 mm | 0 m/s | - | - |
| 1777683655 | 12.78° C | 71% | 1011.1 hPa | 0 mm | 0 m/s | - | - |
* Rain latest hour (hover to see other rain measurements)
** Current wind speed in m/s (hover to see current wind gust speed)